Terminal Aerodrome Forecast
Issued by NWS

Home | Current Version | Previous Version | Text Only | Print | Product List | Glossary On
Versions: 1 2 3 4 5 6 7 8 9 10 11 12 13 14 15 16 17 18 19 20 21 22
000
FTUS45 KGJT 222339
TAFASE
TAF
KASE 222339Z 2300/2324 34010G20KT P6SM VCSH SCT080 BKN100
      TEMPO 2300/2302 5SM -RA BKN025
     FM230200 28007KT P6SM VCSH BKN035
     FM230600 24005KT P6SM BKN045
     FM230800 22004KT P6SM BKN070
     FM231800 34008KT P6SM FEW100=

USA.gov is the U.S. government's official web portal to all federal, state and local government web resources and services.